Time;durP1;ratioP1;P1;durP2;ratioP2;P2;SDS_P1;SDS_P2;PMS_P1;PMS_P2;Temp;Humidity;BMP_temperature;BMP_pressure;BME280_temperature;BME280_humidity;BME280_pressure;Samples;Min_cycle;Max_cycle;Signal;HPM_P1;HPM_P2
2023/04/12 00:00:37;;;;;;;4.63;1.03;;;9.90;99.90;;;;;;4039053;29;20257;-89
2023/04/12 00:02:38;;;;;;;7.70;1.43;;;10.00;99.90;;;;;;4054603;29;20188;-89
2023/04/12 00:04:39;;;;;;;5.13;1.50;;;10.10;99.90;;;;;;4039012;29;20186;-89
2023/04/12 00:06:47;;;;;;;1.80;0.60;;;10.00;99.90;;;;;;4054076;29;20274;-88
2023/04/12 00:08:49;;;;;;;6.13;0.93;;;10.00;99.90;;;;;;4038739;29;20173;-90
2023/04/12 00:10:50;;;;;;;9.70;1.20;;;10.00;99.90;;;;;;4038949;29;20202;-89
2023/04/12 00:12:51;;;;;;;4.17;0.90;;;10.10;99.90;;;;;;4038599;29;20249;-89
2023/04/12 00:14:52;;;;;;;3.97;0.80;;;10.00;99.90;;;;;;4054338;29;20204;-88
2023/04/12 00:16:52;;;;;;;6.47;1.00;;;10.00;99.90;;;;;;4054236;29;20562;-89
2023/04/12 00:18:54;;;;;;;7.67;1.23;;;10.00;99.90;;;;;;4038619;29;20735;-90
2023/04/12 00:20:55;;;;;;;6.90;1.00;;;10.10;99.90;;;;;;4038910;29;20232;-90
2023/04/12 00:22:56;;;;;;;7.53;1.00;;;10.20;99.90;;;;;;4054139;29;20673;-88
2023/04/12 00:24:57;;;;;;;4.97;0.97;;;10.20;99.90;;;;;;4054175;29;20281;-90
2023/04/12 00:27:00;;;;;;;6.10;1.10;;;10.20;99.90;;;;;;4054278;29;20205;-89
2023/04/12 00:29:01;;;;;;;3.30;1.13;;;10.30;99.90;;;;;;4038632;29;20543;-90
2023/04/12 00:31:02;;;;;;;4.97;0.80;;;10.20;99.90;;;;;;4038455;29;20205;-89
2023/04/12 00:33:02;;;;;;;9.43;1.20;;;10.20;99.90;;;;;;4054072;29;20283;-90
2023/04/12 00:35:03;;;;;;;7.17;0.80;;;10.20;99.90;;;;;;4038494;29;20185;-93
2023/04/12 00:37:04;;;;;;;5.23;1.00;;;10.30;99.90;;;;;;4038358;29;20184;-89
2023/04/12 00:39:06;;;;;;;7.00;1.10;;;10.30;99.90;;;;;;4038365;29;20197;-90
2023/04/12 00:41:07;;;;;;;4.30;0.80;;;10.30;99.90;;;;;;4038571;29;20208;-88
2023/04/12 00:43:14;;;;;;;7.50;1.37;;;10.20;99.90;;;;;;4053705;29;20689;-90
2023/04/12 00:45:15;;;;;;;5.03;1.20;;;10.20;99.90;;;;;;4053796;29;20172;-90
2023/04/12 00:47:17;;;;;;;5.93;1.10;;;10.10;99.90;;;;;;4053641;29;20169;-88
2023/04/12 00:49:17;;;;;;;8.93;1.27;;;10.10;99.90;;;;;;4038474;29;20559;-89
2023/04/12 00:51:21;;;;;;;5.87;1.30;;;10.00;99.90;;;;;;4053785;29;20328;-89
2023/04/12 00:53:22;;;;;;;6.83;1.10;;;10.10;99.90;;;;;;4038462;29;20201;-89
2023/04/12 00:55:23;;;;;;;6.40;1.60;;;10.10;99.90;;;;;;4053893;29;20181;-93
2023/04/12 00:57:24;;;;;;;9.73;1.20;;;10.00;99.90;;;;;;4053751;29;20232;-89
2023/04/12 00:59:25;;;;;;;5.27;1.50;;;10.10;99.90;;;;;;4038082;29;20184;-89
2023/04/12 01:01:27;;;;;;;10.07;1.40;;;10.00;99.90;;;;;;4038042;29;20270;-92
2023/04/12 01:03:29;;;;;;;3.60;1.20;;;10.10;99.90;;;;;;4038150;29;20209;-88
2023/04/12 01:05:35;;;;;;;4.87;1.20;;;10.00;99.90;;;;;;4038086;29;20185;-89
2023/04/12 01:07:50;;;;;;;5.40;1.17;;;10.10;99.90;;;;;;4038086;29;20173;-89
2023/04/12 01:09:56;;;;;;;8.30;1.23;;;10.10;99.90;;;;;;4053318;29;20293;-88
2023/04/12 01:12:12;;;;;;;8.13;1.50;;;10.10;99.90;;;;;;4053166;29;20228;-89
2023/04/12 01:14:26;;;;;;;9.77;1.43;;;10.10;99.90;;;;;;4053500;29;20212;-89
2023/04/12 01:16:45;;;;;;;7.67;1.43;;;10.10;99.90;;;;;;4053462;29;20180;-92
2023/04/12 01:18:52;;;;;;;4.97;1.13;;;10.00;99.90;;;;;;4053267;29;20180;-88
2023/04/12 01:21:04;;;;;;;9.53;1.40;;;10.10;99.90;;;;;;4053181;29;20181;-89
2023/04/12 01:23:27;;;;;;;6.73;1.43;;;10.10;99.90;;;;;;4053222;29;20204;-87
2023/04/12 01:25:44;;;;;;;4.03;1.10;;;10.10;99.90;;;;;;4053259;29;20200;-89
2023/04/12 01:27:48;;;;;;;5.27;1.40;;;10.00;99.90;;;;;;4053338;29;20176;-89
2023/04/12 01:29:50;;;;;;;8.90;1.20;;;10.10;99.90;;;;;;4053291;29;20196;-89
2023/04/12 01:31:56;;;;;;;5.40;1.63;;;10.20;99.90;;;;;;4053151;29;20223;-89
2023/04/12 01:33:58;;;;;;;5.97;1.10;;;10.10;99.90;;;;;;4037632;29;20198;-90
2023/04/12 01:36:06;;;;;;;10.33;1.30;;;10.00;99.90;;;;;;4053055;29;20280;-89
2023/04/12 01:38:09;;;;;;;6.53;1.10;;;10.00;99.90;;;;;;4037876;29;20185;-89
2023/04/12 01:40:12;;;;;;;8.30;1.13;;;10.20;99.90;;;;;;4053154;29;20181;-89
2023/04/12 01:42:18;;;;;;;5.50;1.97;;;10.20;99.90;;;;;;4052942;29;20188;-90
2023/04/12 01:44:19;;;;;;;4.43;1.20;;;10.30;99.90;;;;;;4052939;29;20192;-88
2023/04/12 01:46:22;;;;;;;4.57;1.10;;;10.10;99.90;;;;;;4037607;29;20257;-89
2023/04/12 01:48:22;;;;;;;5.20;1.20;;;10.20;99.90;;;;;;4053156;29;20184;-89
2023/04/12 01:50:38;;;;;;;6.13;1.20;;;10.30;99.90;;;;;;4037553;29;20230;-89
2023/04/12 01:52:48;;;;;;;5.63;1.30;;;10.30;99.90;;;;;;4052765;29;20196;-89
2023/04/12 01:54:53;;;;;;;4.70;1.03;;;10.20;99.90;;;;;;4052966;29;20212;-89
2023/04/12 01:56:58;;;;;;;4.07;1.00;;;10.20;99.90;;;;;;4053025;29;20187;-88
2023/04/12 01:59:01;;;;;;;7.43;1.10;;;10.20;99.90;;;;;;4053165;29;20185;-89
2023/04/12 02:01:02;;;;;;;5.90;1.10;;;10.20;99.90;;;;;;4052672;29;20173;-88
2023/04/12 02:03:05;;;;;;;7.47;1.13;;;10.20;99.90;;;;;;4052604;29;20205;-88
2023/04/12 02:05:08;;;;;;;4.80;0.90;;;10.30;99.90;;;;;;4037417;29;20528;-89
2023/04/12 02:07:08;;;;;;;7.17;0.97;;;10.20;99.90;;;;;;4037506;29;20185;-88
2023/04/12 02:09:09;;;;;;;5.13;1.10;;;10.20;99.90;;;;;;4053410;29;20173;-89
2023/04/12 02:11:10;;;;;;;3.57;1.10;;;10.20;99.90;;;;;;4037817;29;20201;-90
2023/04/12 02:13:11;;;;;;;4.93;1.00;;;10.10;99.90;;;;;;4055937;29;20200;-89
2023/04/12 02:15:12;;;;;;;3.53;1.00;;;10.20;99.90;;;;;;4055821;29;20187;-90
2023/04/12 02:17:12;;;;;;;6.47;1.23;;;10.20;99.90;;;;;;4040403;29;20182;-88
2023/04/12 02:19:14;;;;;;;4.20;1.00;;;10.20;99.90;;;;;;4071593;29;20176;-89
2023/04/12 02:21:17;;;;;;;4.17;1.10;;;10.20;99.90;;;;;;4056112;29;20191;-89
2023/04/12 02:23:18;;;;;;;6.13;1.00;;;10.30;99.90;;;;;;4040458;29;20241;-89
2023/04/12 02:25:18;;;;;;;7.17;1.23;;;10.30;99.90;;;;;;4055941;29;20216;-91
2023/04/12 02:27:20;;;;;;;4.28;1.05;;;10.30;99.90;;;;;;4040460;29;20571;-90
2023/04/12 02:29:20;;;;;;;4.23;1.00;;;10.30;99.90;;;;;;4055749;29;20192;-90
2023/04/12 02:31:23;;;;;;;3.03;0.93;;;10.30;99.90;;;;;;4055766;29;20204;-89
2023/04/12 02:33:26;;;;;;;5.13;1.13;;;10.30;99.90;;;;;;4055639;29;20315;-90
2023/04/12 02:35:30;;;;;;;5.27;1.00;;;10.30;99.90;;;;;;4055828;29;20209;-90
2023/04/12 02:37:38;;;;;;;3.70;0.97;;;10.40;99.90;;;;;;4056494;29;20181;-90
2023/04/12 02:39:40;;;;;;;3.53;0.90;;;10.40;99.90;;;;;;4055867;29;20213;-92
2023/04/12 02:41:41;;;;;;;5.30;0.97;;;10.40;99.90;;;;;;4055833;29;20264;-90
2023/04/12 02:43:46;;;;;;;3.70;0.93;;;10.30;99.90;;;;;;4040522;29;20194;-91
2023/04/12 02:45:47;;;;;;;2.77;0.80;;;10.20;99.90;;;;;;4040244;29;20562;-90
2023/04/12 02:47:49;;;;;;;2.87;1.00;;;10.20;99.90;;;;;;4040168;29;20170;-90
2023/04/12 02:49:52;;;;;;;2.93;0.77;;;10.30;99.90;;;;;;4055939;29;20185;-92
2023/04/12 02:51:55;;;;;;;3.43;0.70;;;10.20;99.90;;;;;;4040359;29;20233;-91
2023/04/12 02:54:01;;;;;;;7.50;1.10;;;10.10;99.90;;;;;;4040258;29;20785;-90
2023/04/12 02:56:08;;;;;;;2.50;0.80;;;10.30;99.90;;;;;;4041070;29;20185;-92
2023/04/12 02:58:09;;;;;;;1.90;0.70;;;10.30;99.90;;;;;;4039639;29;20242;-92
2023/04/12 03:00:16;;;;;;;2.17;0.70;;;10.30;99.90;;;;;;4055481;29;20173;-91
2023/04/12 03:02:22;;;;;;;1.87;0.60;;;10.20;99.90;;;;;;4055484;29;20609;-90
2023/04/12 03:04:29;;;;;;;3.60;0.90;;;10.20;99.90;;;;;;4040228;29;20202;-91
2023/04/12 03:06:31;;;;;;;3.97;0.90;;;10.20;99.90;;;;;;4055049;29;20242;-90
2023/04/12 03:08:33;;;;;;;3.80;1.07;;;10.20;99.90;;;;;;4039443;29;20190;-92
2023/04/12 03:10:33;;;;;;;2.90;0.93;;;10.20;99.90;;;;;;4039568;29;20212;-91
2023/04/12 03:12:37;;;;;;;3.70;0.80;;;10.30;99.90;;;;;;4039929;29;20611;-90
2023/04/12 03:14:47;;;;;;;3.17;0.97;;;10.30;99.90;;;;;;4040810;29;20665;-90
2023/04/12 03:16:50;;;;;;;3.37;0.90;;;10.30;99.90;;;;;;4039617;29;20177;-91
2023/04/12 03:18:52;;;;;;;1.87;0.70;;;10.20;99.90;;;;;;4054944;29;20165;-89
2023/04/12 03:20:56;;;;;;;1.90;0.73;;;10.10;99.90;;;;;;4055143;29;20647;-92
2023/04/12 03:22:57;;;;;;;2.33;0.80;;;10.10;99.90;;;;;;4038608;29;20197;-93
2023/04/12 03:24:57;;;;;;;3.63;0.80;;;10.10;99.90;;;;;;4055116;29;20212;-91
2023/04/12 03:27:03;;;;;;;3.90;0.77;;;10.00;99.90;;;;;;4039603;29;20191;-91
2023/04/12 03:29:09;;;;;;;2.90;0.73;;;10.10;99.90;;;;;;4055042;29;20259;-91
2023/04/12 03:31:11;;;;;;;2.53;0.70;;;10.10;99.90;;;;;;4039731;29;20217;-91
2023/04/12 03:33:15;;;;;;;2.60;0.97;;;10.10;99.90;;;;;;4039724;29;20201;-91
2023/04/12 03:35:17;;;;;;;0.90;0.60;;;10.10;99.90;;;;;;4039465;29;20575;-92
2023/04/12 03:37:18;;;;;;;3.73;0.77;;;10.10;99.90;;;;;;4055050;29;20179;-91
2023/04/12 03:39:19;;;;;;;3.37;0.90;;;10.20;99.90;;;;;;4039523;29;20177;-93
2023/04/12 03:41:25;;;;;;;1.70;0.87;;;10.20;99.90;;;;;;4039601;29;20635;-92
2023/04/12 03:43:26;;;;;;;3.00;0.80;;;10.30;99.90;;;;;;4054494;29;20228;-92
2023/04/12 03:45:27;;;;;;;3.00;0.80;;;10.20;99.90;;;;;;4039124;29;20220;-91
2023/04/12 03:47:31;;;;;;;1.60;0.80;;;10.20;99.90;;;;;;4054802;29;20187;-93
2023/04/12 03:49:32;;;;;;;3.33;0.90;;;10.30;99.90;;;;;;4039120;29;20197;-91
2023/04/12 03:51:34;;;;;;;1.93;0.80;;;10.30;99.90;;;;;;4054658;29;20304;-95
2023/04/12 03:53:38;;;;;;;3.03;1.00;;;10.20;99.90;;;;;;4054480;29;20255;-92
2023/04/12 03:55:39;;;;;;;1.47;0.80;;;10.30;99.90;;;;;;4039007;29;20554;-93
2023/04/12 03:57:41;;;;;;;3.43;0.90;;;10.30;99.90;;;;;;4038852;29;20710;-94
2023/04/12 03:59:42;;;;;;;3.07;1.00;;;10.20;99.90;;;;;;4039213;29;20177;-93
2023/04/12 04:01:43;;;;;;;3.60;1.30;;;10.10;99.90;;;;;;4054499;29;20181;-92
2023/04/12 04:03:44;;;;;;;1.83;1.00;;;10.20;99.90;;;;;;4054396;29;20196;-95
2023/04/12 04:05:53;;;;;;;2.03;0.90;;;10.20;99.90;;;;;;4055151;29;20736;-93
2023/04/12 04:07:55;;;;;;;2.23;0.87;;;10.10;99.90;;;;;;4054326;29;20652;-92
2023/04/12 04:09:57;;;;;;;2.93;1.00;;;10.10;99.90;;;;;;4054550;29;20181;-94
2023/04/12 04:12:01;;;;;;;2.17;1.00;;;10.00;99.90;;;;;;4054021;29;20216;-93
2023/04/12 04:14:03;;;;;;;3.53;1.20;;;10.10;99.90;;;;;;4038362;29;20186;-93
2023/04/12 04:16:05;;;;;;;0.90;0.70;;;10.00;99.90;;;;;;4054600;29;20173;-93
2023/04/12 04:18:07;;;;;;;4.70;1.20;;;10.10;99.90;;;;;;4038870;29;20173;-94
2023/04/12 04:20:11;;;;;;;2.47;1.10;;;10.00;99.90;;;;;;4054112;29;20204;-94
2023/04/12 04:22:13;;;;;;;4.77;1.07;;;10.00;99.90;;;;;;4038766;29;20177;-94
2023/04/12 04:24:17;;;;;;;4.93;1.13;;;10.10;99.90;;;;;;4054152;29;20205;-93
2023/04/12 04:26:32;;;;;;;2.23;1.10;;;10.00;99.90;;;;;;4038716;29;20180;-93
2023/04/12 04:28:41;;;;;;;1.83;0.80;;;10.20;99.90;;;;;;4053654;29;20251;-94
2023/04/12 04:30:44;;;;;;;2.35;0.60;;;10.50;99.90;;;;;;4054538;29;20558;-93
2023/04/12 04:32:50;;;;;;;1.43;0.70;;;10.80;99.90;;;;;;4039010;29;20359;-94
2023/04/12 04:34:56;;;;;;;1.63;0.70;;;10.90;99.90;;;;;;4053571;29;20187;-92
2023/04/12 04:36:57;;;;;;;1.43;0.60;;;10.70;99.90;;;;;;4038725;29;20197;-93
2023/04/12 04:39:01;;;;;;;0.63;0.50;;;10.50;99.90;;;;;;4038891;29;20233;-93
2023/04/12 04:41:23;;;;;;;3.38;0.50;;;10.60;99.90;;;;;;4053710;29;20212;-93
2023/04/12 04:43:34;;;;;;;3.47;1.42;;;10.60;99.90;;;;;;4039103;29;20288;-93
2023/04/12 04:45:40;;;;;;;2.17;1.20;;;10.60;99.90;;;;;;4053783;29;20177;-95
2023/04/12 04:47:40;;;;;;;2.47;1.15;;;10.50;99.90;;;;;;4053669;29;20173;-94
2023/04/12 04:49:43;;;;;;;1.58;0.98;;;10.40;99.90;;;;;;4053215;29;20189;-93
2023/04/12 04:51:58;;;;;;;3.10;1.30;;;10.40;99.90;;;;;;4053542;29;20650;-94
2023/04/12 04:54:01;;;;;;;4.38;1.23;;;10.50;99.90;;;;;;4038350;29;20194;-93
2023/04/12 04:56:02;;;;;;;3.13;1.67;;;10.40;99.90;;;;;;4053610;29;20181;-93
2023/04/12 04:58:07;;;;;;;3.08;0.95;;;10.50;99.90;;;;;;4053963;29;20209;-93
2023/04/12 05:00:12;;;;;;;2.95;1.10;;;10.50;99.90;;;;;;4053485;29;20676;-94
2023/04/12 05:02:16;;;;;;;6.32;1.05;;;10.60;99.90;;;;;;4053726;29;20196;-92
2023/04/12 05:04:18;;;;;;;2.20;1.00;;;10.60;99.90;;;;;;4053532;29;20200;-93
2023/04/12 05:06:19;;;;;;;2.25;0.90;;;10.60;99.90;;;;;;4038184;29;20659;-94
2023/04/12 05:08:20;;;;;;;2.67;1.00;;;10.40;99.90;;;;;;4038090;29;20188;-93
2023/04/12 05:10:23;;;;;;;3.47;1.15;;;10.40;99.90;;;;;;4038190;29;20177;-92
2023/04/12 05:12:24;;;;;;;10.23;1.50;;;10.30;99.90;;;;;;4053415;29;20224;-94
2023/04/12 05:14:29;;;;;;;2.53;1.10;;;10.40;99.90;;;;;;4052874;29;20223;-94
2023/04/12 05:16:30;;;;;;;6.78;1.63;;;10.30;99.90;;;;;;4037938;29;20181;-94
2023/04/12 05:18:31;;;;;;;5.60;1.23;;;10.40;99.90;;;;;;4053334;29;20175;-94
2023/04/12 05:20:31;;;;;;;6.38;1.40;;;10.60;99.90;;;;;;4037620;29;20225;-94
2023/04/12 05:22:35;;;;;;;13.45;2.05;;;10.60;99.90;;;;;;4037731;29;20192;-93
2023/04/12 05:24:36;;;;;;;6.25;1.50;;;10.30;99.90;;;;;;4037825;29;20201;-94
2023/04/12 05:26:36;;;;;;;9.13;1.50;;;10.40;99.90;;;;;;4037597;29;20178;-94
2023/04/12 05:28:43;;;;;;;10.77;1.83;;;10.50;99.90;;;;;;4053274;29;20183;-94
2023/04/12 05:30:45;;;;;;;6.40;1.23;;;10.40;99.90;;;;;;4053412;29;20173;-94
2023/04/12 05:32:50;;;;;;;10.13;1.50;;;10.60;99.90;;;;;;4038068;29;20201;-94
2023/04/12 05:34:52;;;;;;;9.63;1.85;;;10.60;99.90;;;;;;4053271;29;20176;-93
2023/04/12 05:36:55;;;;;;;8.68;1.50;;;10.40;99.90;;;;;;4037730;29;20713;-94
2023/04/12 05:38:57;;;;;;;9.82;1.60;;;10.40;99.90;;;;;;4053056;29;20177;-94
2023/04/12 05:40:58;;;;;;;11.60;1.70;;;10.50;99.90;;;;;;4052633;29;20621;-92
2023/04/12 05:42:58;;;;;;;9.63;1.50;;;10.70;99.90;;;;;;4037222;29;20198;-93
2023/04/12 05:45:00;;;;;;;15.85;2.00;;;10.60;99.90;;;;;;4037595;29;20662;-93
2023/04/12 05:47:02;;;;;;;8.60;1.25;;;10.40;99.90;;;;;;4052666;29;20169;-93
2023/04/12 05:49:03;;;;;;;9.65;1.63;;;10.50;99.90;;;;;;4053053;29;20224;-95
2023/04/12 05:51:04;;;;;;;9.55;1.70;;;10.60;99.90;;;;;;4037705;29;20320;-93
2023/04/12 05:53:05;;;;;;;8.40;1.35;;;10.50;99.90;;;;;;4053289;29;20196;-92
2023/04/12 05:55:08;;;;;;;12.23;1.75;;;10.60;99.90;;;;;;4037788;29;20181;-93
2023/04/12 05:57:14;;;;;;;6.95;1.42;;;10.60;99.90;;;;;;4037735;29;20189;-94
2023/04/12 05:59:15;;;;;;;11.88;1.67;;;11.00;99.90;;;;;;4052750;29;20183;-94
2023/04/12 06:01:18;;;;;;;9.77;1.67;;;11.10;99.90;;;;;;4037306;29;20181;-95
2023/04/12 06:03:20;;;;;;;9.88;1.52;;;10.80;99.90;;;;;;4036975;29;20286;-93
2023/04/12 06:05:21;;;;;;;12.27;1.70;;;10.90;99.90;;;;;;4037392;29;20169;-93
2023/04/12 06:07:22;;;;;;;7.50;1.60;;;10.90;99.90;;;;;;4037443;29;20542;-92
2023/04/12 06:09:23;;;;;;;9.88;1.45;;;10.80;99.90;;;;;;4037408;29;20214;-92
2023/04/12 06:11:23;;;;;;;6.32;1.15;;;10.80;99.90;;;;;;4052965;29;20727;-93
2023/04/12 06:13:24;;;;;;;14.77;1.83;;;10.60;99.90;;;;;;4052592;29;20233;-95
2023/04/12 06:15:25;;;;;;;11.73;1.38;;;10.70;99.90;;;;;;4037455;29;20250;-94
2023/04/12 06:17:29;;;;;;;10.03;1.50;;;10.70;99.90;;;;;;4037529;29;20249;-94
2023/04/12 06:19:30;;;;;;;12.25;1.75;;;10.60;99.90;;;;;;4037317;29;20186;-93
2023/04/12 06:21:31;;;;;;;8.77;1.58;;;10.60;99.90;;;;;;4037413;29;20185;-93
2023/04/12 06:23:32;;;;;;;5.80;1.30;;;10.60;99.90;;;;;;4036949;29;20290;-95
2023/04/12 06:25:33;;;;;;;9.23;1.50;;;10.60;99.90;;;;;;4037064;29;20184;-94
2023/04/12 06:27:34;;;;;;;9.90;1.40;;;10.70;99.90;;;;;;4036953;29;20237;-94
2023/04/12 06:29:35;;;;;;;9.98;1.35;;;10.80;99.90;;;;;;4037127;29;20185;-93
2023/04/12 06:31:36;;;;;;;10.60;1.75;;;10.90;99.90;;;;;;4037154;29;20251;-94
2023/04/12 06:33:36;;;;;;;11.43;1.60;;;10.90;99.90;;;;;;4037103;29;20190;-93
2023/04/12 06:35:41;;;;;;;16.27;1.70;;;10.90;99.90;;;;;;4052829;29;20352;-93
2023/04/12 06:37:41;;;;;;;17.42;1.88;;;11.00;99.90;;;;;;4052541;29;20177;-93
2023/04/12 06:39:42;;;;;;;10.23;1.50;;;11.00;99.90;;;;;;4037079;29;20208;-94
2023/04/12 06:41:46;;;;;;;13.30;1.67;;;11.10;99.90;;;;;;4037229;29;20188;-92
2023/04/12 06:43:51;;;;;;;13.68;1.88;;;11.10;99.90;;;;;;4052720;29;20196;-92
2023/04/12 06:45:52;;;;;;;15.93;2.08;;;11.10;99.90;;;;;;4037301;29;20268;-94
2023/04/12 06:47:55;;;;;;;18.50;2.00;;;11.20;99.90;;;;;;4052152;29;20180;-93
2023/04/12 06:49:57;;;;;;;8.35;1.23;;;11.20;99.90;;;;;;4052413;29;20185;-93
2023/04/12 06:51:57;;;;;;;15.20;1.73;;;11.20;99.90;;;;;;4037028;29;20205;-92
2023/04/12 06:53:58;;;;;;;16.38;2.05;;;11.30;99.90;;;;;;4037016;29;20556;-94
2023/04/12 06:56:03;;;;;;;10.52;1.38;;;11.20;99.90;;;;;;4052581;29;20193;-93
2023/04/12 06:58:03;;;;;;;12.52;1.92;;;11.20;99.90;;;;;;4054253;29;20188;-95
2023/04/12 07:00:05;;;;;;;8.07;1.63;;;11.30;99.90;;;;;;4055702;29;20232;-93
2023/04/12 07:02:06;;;;;;;14.95;2.13;;;11.40;99.90;;;;;;4039506;29;20543;-93
2023/04/12 07:04:07;;;;;;;17.02;2.42;;;11.50;99.90;;;;;;4055167;29;20200;-93
2023/04/12 07:06:08;;;;;;;10.32;1.73;;;11.60;99.90;;;;;;4039951;29;20192;-94
2023/04/12 07:08:08;;;;;;;9.27;1.80;;;11.60;99.90;;;;;;4039731;29;20206;-93
2023/04/12 07:10:09;;;;;;;12.60;2.03;;;11.70;99.90;;;;;;4055301;29;20177;-94
2023/04/12 07:12:10;;;;;;;17.35;2.28;;;11.80;99.90;;;;;;4055195;29;20299;-93
2023/04/12 07:14:11;;;;;;;13.32;1.98;;;11.90;99.90;;;;;;4040075;29;20289;-92
2023/04/12 07:16:11;;;;;;;15.00;1.88;;;11.90;99.90;;;;;;4039536;29;20197;-93
2023/04/12 07:18:12;;;;;;;12.82;1.70;;;11.70;99.90;;;;;;4055066;29;20165;-93
2023/04/12 07:20:13;;;;;;;12.45;2.05;;;11.80;99.90;;;;;;4039644;29;20188;-93
2023/04/12 07:22:14;;;;;;;10.27;1.25;;;11.60;99.90;;;;;;4054947;29;20684;-93
2023/04/12 07:24:14;;;;;;;12.80;1.75;;;11.70;99.90;;;;;;4055061;29;20288;-94
2023/04/12 07:26:17;;;;;;;15.07;1.67;;;11.70;99.90;;;;;;4039624;29;20178;-94
2023/04/12 07:28:19;;;;;;;12.65;1.67;;;11.80;99.90;;;;;;4054898;29;20188;-93
2023/04/12 07:30:20;;;;;;;10.73;1.30;;;12.10;99.90;;;;;;4039270;29;20642;-92
2023/04/12 07:32:22;;;;;;;13.77;1.50;;;12.20;99.90;;;;;;4054768;29;20217;-93
2023/04/12 07:34:22;;;;;;;7.07;1.38;;;12.20;99.90;;;;;;4054727;29;20189;-93
2023/04/12 07:36:23;;;;;;;12.95;1.70;;;12.20;99.90;;;;;;4054836;29;20187;-93
2023/04/12 07:38:24;;;;;;;8.90;1.50;;;12.20;99.90;;;;;;4039279;29;20200;-93
2023/04/12 07:40:25;;;;;;;12.55;1.75;;;12.50;99.90;;;;;;4054691;29;20205;-93
2023/04/12 07:42:25;;;;;;;11.20;1.80;;;12.40;99.90;;;;;;4054682;29;20180;-92
2023/04/12 07:44:26;;;;;;;11.02;1.58;;;12.40;99.90;;;;;;4054534;29;20193;-93
2023/04/12 07:46:27;;;;;;;14.68;1.80;;;12.30;99.90;;;;;;4039073;29;20223;-93
2023/04/12 07:48:27;;;;;;;10.30;1.73;;;12.30;99.90;;;;;;4054424;29;20180;-94
2023/04/12 07:50:28;;;;;;;9.32;1.23;;;12.40;99.90;;;;;;4039040;29;20184;-93
2023/04/12 07:52:29;;;;;;;11.73;1.60;;;12.50;99.90;;;;;;4054565;29;20227;-93
2023/04/12 07:54:30;;;;;;;15.43;1.85;;;12.60;99.90;;;;;;4054558;29;20193;-92
2023/04/12 07:56:34;;;;;;;9.38;1.52;;;12.80;99.90;;;;;;4039082;29;20277;-94
2023/04/12 07:58:35;;;;;;;8.00;1.35;;;13.00;99.90;;;;;;4054419;29;20804;-93
2023/04/12 08:00:35;;;;;;;9.57;1.90;;;13.00;99.90;;;;;;4039337;29;20185;-92
2023/04/12 08:02:36;;;;;;;11.00;1.70;;;13.40;99.90;;;;;;4039081;29;20738;-94
2023/04/12 08:04:37;;;;;;;14.75;1.70;;;13.80;99.90;;;;;;4054307;29;20322;-93
2023/04/12 08:06:38;;;;;;;15.32;1.67;;;14.20;99.90;;;;;;4038980;29;20646;-94
2023/04/12 08:08:38;;;;;;;11.55;1.52;;;14.10;99.90;;;;;;4053819;29;20181;-94
2023/04/12 08:10:39;;;;;;;10.82;1.63;;;13.90;99.90;;;;;;4054053;29;20179;-93
2023/04/12 08:12:40;;;;;;;15.68;2.13;;;14.00;99.90;;;;;;4038612;29;20229;-94
2023/04/12 08:14:41;;;;;;;11.98;1.60;;;13.80;99.90;;;;;;4038711;29;20170;-92
2023/04/12 08:16:42;;;;;;;14.05;1.67;;;13.70;99.90;;;;;;4054355;29;20213;-93
2023/04/12 08:18:42;;;;;;;9.68;1.83;;;13.70;99.90;;;;;;4038761;29;20182;-93
2023/04/12 08:20:43;;;;;;;8.57;2.00;;;13.90;99.90;;;;;;4038734;29;20185;-94
2023/04/12 08:22:45;;;;;;;11.48;2.25;;;14.00;99.90;;;;;;4038321;29;20182;-92
2023/04/12 08:24:45;;;;;;;11.35;2.15;;;13.90;99.90;;;;;;4053978;29;20181;-92
2023/04/12 08:26:46;;;;;;;13.30;2.22;;;14.00;99.90;;;;;;4053947;29;20200;-92
2023/04/12 08:28:47;;;;;;;10.50;2.03;;;14.10;99.90;;;;;;4038530;29;20663;-93
2023/04/12 08:30:48;;;;;;;8.23;1.90;;;14.20;99.90;;;;;;4069396;29;20207;-93
2023/04/12 08:32:48;;;;;;;5.50;1.88;;;14.20;99.90;;;;;;4038548;29;20190;-93
2023/04/12 08:34:49;;;;;;;16.23;2.00;;;14.50;99.90;;;;;;4053971;29;20212;-92
2023/04/12 08:36:50;;;;;;;10.13;2.00;;;14.90;99.90;;;;;;4038412;29;20592;-92
2023/04/12 08:38:52;;;;;;;10.52;2.08;;;15.30;99.90;;;;;;4053875;29;20243;-93
2023/04/12 08:40:52;;;;;;;11.23;1.90;;;15.50;99.90;;;;;;4038380;29;20183;-94
2023/04/12 08:42:54;;;;;;;10.93;2.10;;;16.20;99.90;;;;;;4053788;29;20201;-92
2023/04/12 08:44:55;;;;;;;17.05;2.35;;;16.80;99.90;;;;;;4038290;29;20632;-92
2023/04/12 08:46:56;;;;;;;11.02;2.00;;;16.80;99.90;;;;;;4038257;29;20192;-93
2023/04/12 08:48:57;;;;;;;11.20;2.33;;;16.70;99.90;;;;;;4038125;29;20182;-93
2023/04/12 08:50:59;;;;;;;14.82;2.10;;;16.30;99.90;;;;;;4053823;29;20202;-92
2023/04/12 08:53:00;;;;;;;15.75;2.05;;;15.80;99.90;;;;;;4038267;29;20201;-93
2023/04/12 08:55:07;;;;;;;10.90;1.75;;;15.70;99.90;;;;;;4038583;29;20317;-93
2023/04/12 08:57:08;;;;;;;13.40;2.15;;;16.00;99.90;;;;;;4053691;29;20329;-92
2023/04/12 08:59:09;;;;;;;14.20;2.10;;;16.10;99.90;;;;;;4037926;29;20181;-92
2023/04/12 09:01:14;;;;;;;14.10;2.22;;;16.10;99.90;;;;;;4038101;29;20196;-92
2023/04/12 09:03:15;;;;;;;14.48;2.05;;;15.70;99.90;;;;;;4053160;29;20211;-93
2023/04/12 09:05:16;;;;;;;15.82;2.15;;;15.60;99.90;;;;;;4038122;29;20193;-94
2023/04/12 09:07:17;;;;;;;9.05;1.88;;;15.70;99.90;;;;;;4038075;29;20192;-93
2023/04/12 09:09:18;;;;;;;18.30;2.22;;;15.70;99.90;;;;;;4038045;29;20181;-93
2023/04/12 09:11:28;;;;;;;11.23;1.95;;;15.50;99.90;;;;;;4038009;29;20220;-93
2023/04/12 09:13:38;;;;;;;14.38;1.80;;;15.30;99.90;;;;;;4038013;29;20193;-93
2023/04/12 09:15:48;;;;;;;19.17;2.10;;;15.70;99.90;;;;;;4053452;29;20197;-93
2023/04/12 09:18:06;;;;;;;11.38;1.63;;;15.50;99.90;;;;;;4037971;29;20180;-92
2023/04/12 09:20:15;;;;;;;12.95;2.33;;;15.70;99.90;;;;;;4053471;29;20205;-93
2023/04/12 09:22:16;;;;;;;11.48;1.90;;;15.60;99.90;;;;;;4053428;29;20260;-92
2023/04/12 09:24:17;;;;;;;18.08;2.15;;;15.60;99.90;;;;;;4053185;29;20196;-93
2023/04/12 09:26:27;;;;;;;16.40;1.90;;;15.50;99.90;;;;;;4037673;29;20177;-93
2023/04/12 09:28:29;;;;;;;13.48;1.83;;;15.70;99.90;;;;;;4053094;29;20191;-92
2023/04/12 09:30:40;;;;;;;10.52;1.60;;;15.60;99.90;;;;;;4053209;29;20233;-93
2023/04/12 09:32:41;;;;;;;14.88;1.90;;;15.60;99.90;;;;;;4053088;29;20263;-92
2023/04/12 09:34:55;;;;;;;10.13;1.48;;;15.70;99.90;;;;;;4037884;29;20178;-93
2023/04/12 09:36:56;;;;;;;10.82;1.58;;;15.50;99.90;;;;;;4053095;29;20177;-92
2023/04/12 09:39:00;;;;;;;10.07;1.58;;;15.30;99.90;;;;;;4037643;29;20316;-92
2023/04/12 09:41:21;;;;;;;11.18;1.27;;;15.10;99.90;;;;;;4037765;29;20237;-92
2023/04/12 09:43:38;;;;;;;10.85;1.42;;;15.20;99.90;;;;;;4037838;29;20205;-92
2023/04/12 09:45:39;;;;;;;11.23;1.83;;;15.40;99.90;;;;;;4037696;29;20188;-91
2023/04/12 09:47:40;;;;;;;10.50;1.75;;;15.10;99.90;;;;;;4037567;29;20280;-93
2023/04/12 09:49:43;;;;;;;12.63;1.90;;;14.60;99.90;;;;;;4037798;29;20285;-93
2023/04/12 09:51:50;;;;;;;18.55;2.10;;;14.50;99.90;;;;;;4052798;29;20208;-92
2023/04/12 09:53:52;;;;;;;13.13;1.90;;;14.40;99.90;;;;;;4037195;29;20196;-92
2023/04/12 09:55:55;;;;;;;10.07;1.50;;;14.40;99.90;;;;;;4037539;29;20554;-93
2023/04/12 09:57:55;;;;;;;10.02;1.67;;;14.10;99.90;;;;;;4037147;29;20718;-93
2023/04/12 09:59:58;;;;;;;14.68;2.20;;;13.90;99.90;;;;;;4052818;29;20242;-92
2023/04/12 10:01:59;;;;;;;12.35;1.52;;;13.40;99.90;;;;;;4052867;29;20185;-92
2023/04/12 10:04:01;;;;;;;7.78;1.55;;;13.00;99.90;;;;;;4037546;29;20774;-93
2023/04/12 10:06:04;;;;;;;10.35;1.63;;;13.00;99.90;;;;;;4052936;29;20307;-92
2023/04/12 10:08:05;;;;;;;9.77;1.30;;;13.00;99.90;;;;;;4052879;29;20638;-92
2023/04/12 10:10:07;;;;;;;9.15;1.48;;;13.30;99.90;;;;;;4037417;29;20670;-93
2023/04/12 10:12:08;;;;;;;11.02;1.70;;;13.70;99.90;;;;;;4037286;29;20220;-91
2023/04/12 10:14:10;;;;;;;12.13;1.33;;;14.00;99.90;;;;;;4037209;29;20212;-92
2023/04/12 10:16:14;;;;;;;9.43;1.65;;;14.00;99.90;;;;;;4052795;29;20180;-92
2023/04/12 10:18:17;;;;;;;11.18;2.15;;;14.20;99.90;;;;;;4037219;29;20178;-92
2023/04/12 10:20:19;;;;;;;13.07;2.10;;;14.60;99.90;;;;;;4068266;29;20183;-92
2023/04/12 10:22:21;;;;;;;17.05;1.92;;;15.00;99.90;;;;;;4037581;29;20177;-92
2023/04/12 10:24:26;;;;;;;14.40;1.77;;;15.20;99.90;;;;;;4036867;29;20277;-93
2023/04/12 10:26:27;;;;;;;15.82;2.17;;;15.50;99.90;;;;;;4052475;29;20180;-92
2023/04/12 10:28:28;;;;;;;15.48;2.10;;;15.70;99.90;;;;;;4037058;29;20655;-92
2023/04/12 10:30:30;;;;;;;14.35;1.98;;;15.60;99.90;;;;;;4037293;29;20260;-92
2023/04/12 10:32:31;;;;;;;12.02;1.92;;;15.90;99.90;;;;;;4053425;29;20239;-92
2023/04/12 10:34:34;;;;;;;12.95;2.22;;;16.20;99.90;;;;;;4040427;29;20261;-91
2023/04/12 10:37:03;;;;;;;12.80;1.85;;;16.20;99.90;;;;;;4055825;29;20213;-92